sensor_id;sensor_type;location;lat;lon;timestamp;pressure;altitude;pressure_sealevel;temperature;humidity
550;BME280;20066;48.764;9.176;2024-02-28T00:04:43;98151.53;;;10.33;61.55
550;BME280;20066;48.764;9.176;2024-02-28T00:07:12;98145.78;;;10.59;61.26
550;BME280;20066;48.764;9.176;2024-02-28T00:09:41;98159.59;;;10.40;61.12
550;BME280;20066;48.764;9.176;2024-02-28T00:12:09;98158.06;;;10.32;61.58
550;BME280;20066;48.764;9.176;2024-02-28T00:14:40;98152.66;;;10.35;61.75
550;BME280;20066;48.764;9.176;2024-02-28T00:17:08;98158.88;;;10.64;60.59
550;BME280;20066;48.764;9.176;2024-02-28T00:19:37;98154.97;;;10.30;61.30
550;BME280;20066;48.764;9.176;2024-02-28T00:22:10;98155.75;;;10.44;61.43
550;BME280;20066;48.764;9.176;2024-02-28T00:24:38;98156.56;;;10.56;60.64
550;BME280;20066;48.764;9.176;2024-02-28T00:27:07;98163.84;;;10.52;59.79
550;BME280;20066;48.764;9.176;2024-02-28T00:29:35;98166.16;;;10.57;59.73
550;BME280;20066;48.764;9.176;2024-02-28T00:32:06;98168.81;;;11.13;57.80
550;BME280;20066;48.764;9.176;2024-02-28T00:34:35;98163.06;;;10.44;58.58
550;BME280;20066;48.764;9.176;2024-02-28T00:37:03;98166.13;;;10.42;58.28
550;BME280;20066;48.764;9.176;2024-02-28T00:39:31;98165.38;;;11.09;56.27
550;BME280;20066;48.764;9.176;2024-02-28T00:41:59;98156.91;;;10.97;56.11
550;BME280;20066;48.764;9.176;2024-02-28T00:44:28;98158.81;;;11.17;55.84
550;BME280;20066;48.764;9.176;2024-02-28T00:46:56;98159.41;;;9.73;61.20
550;BME280;20066;48.764;9.176;2024-02-28T00:49:25;98156.16;;;10.54;58.92
550;BME280;20066;48.764;9.176;2024-02-28T00:51:54;98160.75;;;10.67;58.32
550;BME280;20066;48.764;9.176;2024-02-28T00:54:23;98155.63;;;9.91;60.38
550;BME280;20066;48.764;9.176;2024-02-28T00:56:52;98161.13;;;10.30;59.29
550;BME280;20066;48.764;9.176;2024-02-28T00:59:20;98159.59;;;10.29;58.96
550;BME280;20066;48.764;9.176;2024-02-28T01:01:48;98158.47;;;10.73;57.98
550;BME280;20066;48.764;9.176;2024-02-28T01:04:17;98163.47;;;10.64;58.17
550;BME280;20066;48.764;9.176;2024-02-28T01:06:46;98170.00;;;10.91;57.22
550;BME280;20066;48.764;9.176;2024-02-28T01:09:15;98163.47;;;10.71;58.26
550;BME280;20066;48.764;9.176;2024-02-28T01:11:42;98162.69;;;10.67;58.02
550;BME280;20066;48.764;9.176;2024-02-28T01:14:12;98163.84;;;10.69;57.84
550;BME280;20066;48.764;9.176;2024-02-28T01:16:40;98163.84;;;10.55;58.36
550;BME280;20066;48.764;9.176;2024-02-28T01:19:09;98166.94;;;10.64;58.01
550;BME280;20066;48.764;9.176;2024-02-28T01:21:38;98169.59;;;10.39;58.62
550;BME280;20066;48.764;9.176;2024-02-28T01:24:08;98162.97;;;10.12;60.01
550;BME280;20066;48.764;9.176;2024-02-28T01:26:36;98162.59;;;10.21;59.96
550;BME280;20066;48.764;9.176;2024-02-28T01:29:05;98163.75;;;10.20;59.60
550;BME280;20066;48.764;9.176;2024-02-28T01:31:34;98169.41;;;9.79;61.25
550;BME280;20066;48.764;9.176;2024-02-28T01:34:03;98169.50;;;10.11;60.16
550;BME280;20066;48.764;9.176;2024-02-28T01:36:31;98171.03;;;10.12;60.31
550;BME280;20066;48.764;9.176;2024-02-28T01:39:00;98177.28;;;10.59;59.13
550;BME280;20066;48.764;9.176;2024-02-28T01:41:29;98178.31;;;10.04;60.16
550;BME280;20066;48.764;9.176;2024-02-28T01:43:57;98184.56;;;10.40;59.56
550;BME280;20066;48.764;9.176;2024-02-28T01:46:27;98182.69;;;10.83;58.09
550;BME280;20066;48.764;9.176;2024-02-28T01:48:55;98190.38;;;10.64;58.82
550;BME280;20066;48.764;9.176;2024-02-28T01:51:25;98189.59;;;10.70;58.45
550;BME280;20066;48.764;9.176;2024-02-28T01:53:55;98191.09;;;10.36;59.48
550;BME280;20066;48.764;9.176;2024-02-28T01:56:24;98188.34;;;10.18;60.82
550;BME280;20066;48.764;9.176;2024-02-28T01:58:55;98184.97;;;10.46;59.63
550;BME280;20066;48.764;9.176;2024-02-28T02:01:26;98193.81;;;10.82;58.56
550;BME280;20066;48.764;9.176;2024-02-28T02:03:55;98199.56;;;10.41;59.91
550;BME280;20066;48.764;9.176;2024-02-28T02:06:23;98192.63;;;10.33;60.00
550;BME280;20066;48.764;9.176;2024-02-28T02:08:53;98189.84;;;10.08;61.02
550;BME280;20066;48.764;9.176;2024-02-28T02:11:23;98196.47;;;10.43;60.06
550;BME280;20066;48.764;9.176;2024-02-28T02:13:54;98196.66;;;9.78;62.28
550;BME280;20066;48.764;9.176;2024-02-28T02:16:22;98201.25;;;9.81;62.05
550;BME280;20066;48.764;9.176;2024-02-28T02:18:53;98198.13;;;9.64;62.44
550;BME280;20066;48.764;9.176;2024-02-28T02:21:23;98204.34;;;9.86;62.59
550;BME280;20066;48.764;9.176;2024-02-28T02:23:53;98202.16;;;10.24;61.04
550;BME280;20066;48.764;9.176;2024-02-28T02:26:21;98205.94;;;9.94;62.16
550;BME280;20066;48.764;9.176;2024-02-28T02:28:51;98204.78;;;9.99;62.18
550;BME280;20066;48.764;9.176;2024-02-28T02:31:20;98217.28;;;9.63;63.67
550;BME280;20066;48.764;9.176;2024-02-28T02:33:51;98222.31;;;9.72;63.11
550;BME280;20066;48.764;9.176;2024-02-28T02:36:19;98221.66;;;9.92;62.93
550;BME280;20066;48.764;9.176;2024-02-28T02:38:47;98224.78;;;10.12;62.09
550;BME280;20066;48.764;9.176;2024-02-28T02:41:16;98227.44;;;10.05;62.52
550;BME280;20066;48.764;9.176;2024-02-28T02:43:44;98221.00;;;10.24;61.89
550;BME280;20066;48.764;9.176;2024-02-28T02:46:12;98234.09;;;10.36;61.11
550;BME280;20066;48.764;9.176;2024-02-28T02:48:40;98235.94;;;10.11;62.16
550;BME280;20066;48.764;9.176;2024-02-28T02:51:08;98236.78;;;10.25;61.60
550;BME280;20066;48.764;9.176;2024-02-28T02:53:36;98244.28;;;9.91;62.73
550;BME280;20066;48.764;9.176;2024-02-28T02:56:04;98248.03;;;9.73;63.53
550;BME280;20066;48.764;9.176;2024-02-28T02:58:34;98252.41;;;10.02;62.55
550;BME280;20066;48.764;9.176;2024-02-28T03:01:03;98257.34;;;9.96;62.36
550;BME280;20066;48.764;9.176;2024-02-28T03:03:34;98255.72;;;9.78;62.94
550;BME280;20066;48.764;9.176;2024-02-28T03:06:04;98262.81;;;10.18;61.91
550;BME280;20066;48.764;9.176;2024-02-28T03:08:33;98257.16;;;10.33;61.28
550;BME280;20066;48.764;9.176;2024-02-28T03:11:02;98271.53;;;9.93;62.68
550;BME280;20066;48.764;9.176;2024-02-28T03:13:31;98268.50;;;9.95;62.80
550;BME280;20066;48.764;9.176;2024-02-28T03:16:04;98282.88;;;9.65;62.89
550;BME280;20066;48.764;9.176;2024-02-28T03:18:33;98281.53;;;9.93;62.74
550;BME280;20066;48.764;9.176;2024-02-28T03:21:03;98285.81;;;10.12;61.82
550;BME280;20066;48.764;9.176;2024-02-28T03:23:31;98284.06;;;10.48;61.04
550;BME280;20066;48.764;9.176;2024-02-28T03:25:59;98287.69;;;10.04;61.90
550;BME280;20066;48.764;9.176;2024-02-28T03:28:27;98289.13;;;9.84;62.68
550;BME280;20066;48.764;9.176;2024-02-28T03:30:55;98300.75;;;10.05;61.59
550;BME280;20066;48.764;9.176;2024-02-28T03:33:25;98299.63;;;10.06;61.33
550;BME280;20066;48.764;9.176;2024-02-28T03:35:53;98309.50;;;9.85;62.64
550;BME280;20066;48.764;9.176;2024-02-28T03:38:20;98309.75;;;9.65;62.80
550;BME280;20066;48.764;9.176;2024-02-28T03:40:48;98312.28;;;9.44;63.34
550;BME280;20066;48.764;9.176;2024-02-28T03:45:45;98315.00;;;10.13;61.13
550;BME280;20066;48.764;9.176;2024-02-28T03:48:13;98317.25;;;10.04;61.19
550;BME280;20066;48.764;9.176;2024-02-28T03:50:42;98315.38;;;9.50;62.75
550;BME280;20066;48.764;9.176;2024-02-28T03:53:10;98315.66;;;9.34;64.11
550;BME280;20066;48.764;9.176;2024-02-28T03:55:38;98317.50;;;9.78;62.67
550;BME280;20066;48.764;9.176;2024-02-28T03:58:06;98321.00;;;9.34;63.86
550;BME280;20066;48.764;9.176;2024-02-28T04:00:35;98327.56;;;9.33;64.36
550;BME280;20066;48.764;9.176;2024-02-28T04:03:05;98331.13;;;9.48;64.53
550;BME280;20066;48.764;9.176;2024-02-28T04:05:32;98328.06;;;10.11;62.08
550;BME280;20066;48.764;9.176;2024-02-28T04:08:01;98336.81;;;9.94;62.58
550;BME280;20066;48.764;9.176;2024-02-28T04:10:29;98334.47;;;9.96;62.48
550;BME280;20066;48.764;9.176;2024-02-28T04:12:57;98337.88;;;9.82;62.24
550;BME280;20066;48.764;9.176;2024-02-28T04:15:25;98339.31;;;9.21;63.79
550;BME280;20066;48.764;9.176;2024-02-28T04:17:54;98341.91;;;9.58;63.16
550;BME280;20066;48.764;9.176;2024-02-28T04:20:22;98331.63;;;9.16;64.68
550;BME280;20066;48.764;9.176;2024-02-28T04:22:49;98340.00;;;9.55;63.83
550;BME280;20066;48.764;9.176;2024-02-28T04:25:19;98341.03;;;8.66;66.25
550;BME280;20066;48.764;9.176;2024-02-28T04:27:47;98337.59;;;8.66;66.31
550;BME280;20066;48.764;9.176;2024-02-28T04:30:16;98337.59;;;8.99;65.52
550;BME280;20066;48.764;9.176;2024-02-28T04:32:44;98333.47;;;9.09;64.77
550;BME280;20066;48.764;9.176;2024-02-28T04:35:12;98335.78;;;8.73;66.87
550;BME280;20066;48.764;9.176;2024-02-28T04:37:42;98339.97;;;9.11;65.41
550;BME280;20066;48.764;9.176;2024-02-28T04:40:11;98346.53;;;9.10;64.51
550;BME280;20066;48.764;9.176;2024-02-28T04:42:40;98338.88;;;8.75;65.82
550;BME280;20066;48.764;9.176;2024-02-28T04:45:09;98347.72;;;9.16;64.75
550;BME280;20066;48.764;9.176;2024-02-28T04:47:38;98347.03;;;8.86;66.16
550;BME280;20066;48.764;9.176;2024-02-28T04:50:11;98354.09;;;9.05;65.29
550;BME280;20066;48.764;9.176;2024-02-28T04:52:39;98350.03;;;9.18;65.04
550;BME280;20066;48.764;9.176;2024-02-28T04:55:07;98354.19;;;9.56;63.33
550;BME280;20066;48.764;9.176;2024-02-28T04:57:35;98358.69;;;9.01;64.81
550;BME280;20066;48.764;9.176;2024-02-28T05:00:07;98355.31;;;8.74;66.46
550;BME280;20066;48.764;9.176;2024-02-28T05:02:35;98351.97;;;9.21;65.00
550;BME280;20066;48.764;9.176;2024-02-28T05:05:04;98352.63;;;8.74;66.21
550;BME280;20066;48.764;9.176;2024-02-28T05:07:32;98354.34;;;8.59;67.14
550;BME280;20066;48.764;9.176;2024-02-28T05:10:00;98348.25;;;8.92;65.87
550;BME280;20066;48.764;9.176;2024-02-28T05:12:28;98357.66;;;8.45;67.52
550;BME280;20066;48.764;9.176;2024-02-28T05:14:56;98360.19;;;8.35;69.00
550;BME280;20066;48.764;9.176;2024-02-28T05:17:25;98364.81;;;9.01;66.39
550;BME280;20066;48.764;9.176;2024-02-28T05:19:54;98363.75;;;9.09;65.06
550;BME280;20066;48.764;9.176;2024-02-28T05:22:24;98364.13;;;8.71;66.19
550;BME280;20066;48.764;9.176;2024-02-28T05:24:52;98366.63;;;8.60;66.52
550;BME280;20066;48.764;9.176;2024-02-28T05:27:32;98373.59;;;8.98;65.59
550;BME280;20066;48.764;9.176;2024-02-28T05:30:11;98373.78;;;9.16;64.92
550;BME280;20066;48.764;9.176;2024-02-28T05:32:42;98371.72;;;9.02;65.31
550;BME280;20066;48.764;9.176;2024-02-28T05:35:13;98376.53;;;8.86;65.49
550;BME280;20066;48.764;9.176;2024-02-28T05:37:41;98373.41;;;8.50;66.62
550;BME280;20066;48.764;9.176;2024-02-28T05:40:13;98375.00;;;8.55;66.61
550;BME280;20066;48.764;9.176;2024-02-28T05:42:45;98381.56;;;8.91;65.59
550;BME280;20066;48.764;9.176;2024-02-28T05:45:22;98382.00;;;9.34;64.42
550;BME280;20066;48.764;9.176;2024-02-28T05:47:53;98396.25;;;9.04;65.07
550;BME280;20066;48.764;9.176;2024-02-28T05:50:21;98395.31;;;8.86;65.65
550;BME280;20066;48.764;9.176;2024-02-28T05:52:49;98400.63;;;8.82;65.39
550;BME280;20066;48.764;9.176;2024-02-28T05:55:19;98394.91;;;8.84;66.33
550;BME280;20066;48.764;9.176;2024-02-28T05:57:53;98400.69;;;9.23;64.26
550;BME280;20066;48.764;9.176;2024-02-28T06:00:21;98409.81;;;9.55;63.56
550;BME280;20066;48.764;9.176;2024-02-28T06:02:51;98414.38;;;8.77;65.32
550;BME280;20066;48.764;9.176;2024-02-28T06:05:22;98417.41;;;8.76;66.01
550;BME280;20066;48.764;9.176;2024-02-28T06:07:51;98422.56;;;8.91;65.41
550;BME280;20066;48.764;9.176;2024-02-28T06:10:20;98424.56;;;8.98;64.98
550;BME280;20066;48.764;9.176;2024-02-28T06:13:03;98425.63;;;8.90;65.38
550;BME280;20066;48.764;9.176;2024-02-28T06:15:31;98432.97;;;9.74;62.67
550;BME280;20066;48.764;9.176;2024-02-28T06:18:05;98437.34;;;9.93;61.77
550;BME280;20066;48.764;9.176;2024-02-28T06:20:37;98434.56;;;9.82;61.67
550;BME280;20066;48.764;9.176;2024-02-28T06:23:09;98433.44;;;9.39;63.07
550;BME280;20066;48.764;9.176;2024-02-28T06:25:49;98436.19;;;9.09;64.24
550;BME280;20066;48.764;9.176;2024-02-28T06:28:23;98440.94;;;9.26;63.42
550;BME280;20066;48.764;9.176;2024-02-28T06:30:52;98454.00;;;9.28;63.43
550;BME280;20066;48.764;9.176;2024-02-28T06:35:55;98456.78;;;9.76;61.93
550;BME280;20066;48.764;9.176;2024-02-28T06:38:29;98462.56;;;9.78;61.41
550;BME280;20066;48.764;9.176;2024-02-28T06:41:05;98465.78;;;9.16;63.76
550;BME280;20066;48.764;9.176;2024-02-28T06:43:43;98462.41;;;9.23;64.05
550;BME280;20066;48.764;9.176;2024-02-28T06:46:14;98464.56;;;9.47;62.95
550;BME280;20066;48.764;9.176;2024-02-28T06:48:49;98473.56;;;10.13;61.12
550;BME280;20066;48.764;9.176;2024-02-28T06:51:21;98479.16;;;10.38;60.29
550;BME280;20066;48.764;9.176;2024-02-28T06:53:51;98478.75;;;9.88;60.85
550;BME280;20066;48.764;9.176;2024-02-28T06:56:23;98480.13;;;10.16;59.79
550;BME280;20066;48.764;9.176;2024-02-28T06:58:51;98475.47;;;9.65;61.50
550;BME280;20066;48.764;9.176;2024-02-28T07:01:22;98481.53;;;9.58;62.08
550;BME280;20066;48.764;9.176;2024-02-28T07:04:00;98476.41;;;9.83;61.54
550;BME280;20066;48.764;9.176;2024-02-28T07:06:32;98478.88;;;10.02;60.73
550;BME280;20066;48.764;9.176;2024-02-28T07:09:03;98483.06;;;9.56;62.49
550;BME280;20066;48.764;9.176;2024-02-28T07:11:33;98479.66;;;10.03;60.93
550;BME280;20066;48.764;9.176;2024-02-28T07:14:06;98483.72;;;9.86;61.45
550;BME280;20066;48.764;9.176;2024-02-28T07:16:38;98484.63;;;9.57;62.18
550;BME280;20066;48.764;9.176;2024-02-28T07:19:12;98499.56;;;9.98;61.29
550;BME280;20066;48.764;9.176;2024-02-28T07:21:44;98499.44;;;9.44;62.67
550;BME280;20066;48.764;9.176;2024-02-28T07:24:13;98510.31;;;9.58;62.55
550;BME280;20066;48.764;9.176;2024-02-28T07:26:43;98513.22;;;9.79;61.49
550;BME280;20066;48.764;9.176;2024-02-28T07:29:12;98507.78;;;10.16;60.69
550;BME280;20066;48.764;9.176;2024-02-28T07:31:40;98513.84;;;10.06;60.31
550;BME280;20066;48.764;9.176;2024-02-28T07:37:27;98521.13;;;10.05;60.32
550;BME280;20066;48.764;9.176;2024-02-28T07:39:55;98517.28;;;9.66;61.62
550;BME280;20066;48.764;9.176;2024-02-28T07:42:28;98529.34;;;9.79;61.08
550;BME280;20066;48.764;9.176;2024-02-28T07:45:00;98530.78;;;9.36;62.44
550;BME280;20066;48.764;9.176;2024-02-28T07:47:31;98527.66;;;9.64;62.00
550;BME280;20066;48.764;9.176;2024-02-28T07:50:22;98533.09;;;10.15;60.44
550;BME280;20066;48.764;9.176;2024-02-28T07:53:03;98537.84;;;9.88;61.13
550;BME280;20066;48.764;9.176;2024-02-28T07:55:33;98541.63;;;9.80;61.99
550;BME280;20066;48.764;9.176;2024-02-28T07:58:02;98553.03;;;9.70;61.64
550;BME280;20066;48.764;9.176;2024-02-28T08:00:44;98549.09;;;9.60;62.47
550;BME280;20066;48.764;9.176;2024-02-28T08:03:12;98551.13;;;10.11;60.91
550;BME280;20066;48.764;9.176;2024-02-28T08:05:47;98559.44;;;9.99;60.88
550;BME280;20066;48.764;9.176;2024-02-28T08:08:36;98554.44;;;9.57;61.87
550;BME280;20066;48.764;9.176;2024-02-28T08:11:04;98561.13;;;9.74;61.84
550;BME280;20066;48.764;9.176;2024-02-28T08:13:33;98557.28;;;9.75;61.36
550;BME280;20066;48.764;9.176;2024-02-28T08:16:04;98556.19;;;9.79;61.08
550;BME280;20066;48.764;9.176;2024-02-28T08:18:36;98559.97;;;9.75;61.54
550;BME280;20066;48.764;9.176;2024-02-28T08:21:20;98563.44;;;9.08;63.86
550;BME280;20066;48.764;9.176;2024-02-28T08:23:55;98559.53;;;9.02;63.59
550;BME280;20066;48.764;9.176;2024-02-28T08:26:30;98560.38;;;9.10;63.73
550;BME280;20066;48.764;9.176;2024-02-28T08:29:11;98560.81;;;8.85;64.77
550;BME280;20066;48.764;9.176;2024-02-28T08:31:49;98569.66;;;9.16;64.29
550;BME280;20066;48.764;9.176;2024-02-28T08:34:26;98576.78;;;9.35;63.32
550;BME280;20066;48.764;9.176;2024-02-28T08:37:02;98565.81;;;9.47;63.11
550;BME280;20066;48.764;9.176;2024-02-28T08:39:36;98571.50;;;9.42;63.01
550;BME280;20066;48.764;9.176;2024-02-28T08:42:10;98570.28;;;9.06;64.95
550;BME280;20066;48.764;9.176;2024-02-28T08:44:52;98566.44;;;8.77;64.71
550;BME280;20066;48.764;9.176;2024-02-28T08:47:35;98572.19;;;9.05;65.04
550;BME280;20066;48.764;9.176;2024-02-28T08:50:03;98571.44;;;8.78;65.42
550;BME280;20066;48.764;9.176;2024-02-28T08:52:32;98579.09;;;9.06;64.76
550;BME280;20066;48.764;9.176;2024-02-28T08:55:02;98583.19;;;9.56;63.30
550;BME280;20066;48.764;9.176;2024-02-28T08:57:30;98590.47;;;9.56;63.12
550;BME280;20066;48.764;9.176;2024-02-28T08:59:58;98589.16;;;9.43;62.75
550;BME280;20066;48.764;9.176;2024-02-28T09:02:27;98601.31;;;9.63;62.47
550;BME280;20066;48.764;9.176;2024-02-28T09:04:55;98590.50;;;9.93;61.90
550;BME280;20066;48.764;9.176;2024-02-28T09:07:23;98591.09;;;10.57;58.93
550;BME280;20066;48.764;9.176;2024-02-28T09:09:51;98587.69;;;9.82;60.95
550;BME280;20066;48.764;9.176;2024-02-28T09:12:21;98587.69;;;9.82;61.48
550;BME280;20066;48.764;9.176;2024-02-28T09:14:49;98587.09;;;9.99;61.54
550;BME280;20066;48.764;9.176;2024-02-28T09:17:23;98594.22;;;9.48;62.99
550;BME280;20066;48.764;9.176;2024-02-28T09:19:52;98593.94;;;9.56;62.68
550;BME280;20066;48.764;9.176;2024-02-28T09:22:20;98585.06;;;9.52;62.59
550;BME280;20066;48.764;9.176;2024-02-28T09:24:50;98590.28;;;9.12;64.36
550;BME280;20066;48.764;9.176;2024-02-28T09:27:18;98589.16;;;9.13;63.25
550;BME280;20066;48.764;9.176;2024-02-28T09:29:48;98589.00;;;9.62;63.04
550;BME280;20066;48.764;9.176;2024-02-28T09:32:16;98587.97;;;9.74;62.24
550;BME280;20066;48.764;9.176;2024-02-28T09:34:45;98581.66;;;9.55;63.17
550;BME280;20066;48.764;9.176;2024-02-28T09:37:13;98581.84;;;10.14;61.19
550;BME280;20066;48.764;9.176;2024-02-28T09:39:45;98591.56;;;9.88;61.16
550;BME280;20066;48.764;9.176;2024-02-28T09:42:14;98591.41;;;10.07;60.26
550;BME280;20066;48.764;9.176;2024-02-28T09:44:42;98595.50;;;10.35;60.06
550;BME280;20066;48.764;9.176;2024-02-28T09:47:13;98593.19;;;9.93;61.47
550;BME280;20066;48.764;9.176;2024-02-28T09:49:41;98600.41;;;10.73;58.04
550;BME280;20066;48.764;9.176;2024-02-28T09:52:10;98595.25;;;10.47;58.32
550;BME280;20066;48.764;9.176;2024-02-28T09:54:38;98599.53;;;11.13;57.12
550;BME280;20066;48.764;9.176;2024-02-28T09:57:06;98602.94;;;10.52;58.84
550;BME280;20066;48.764;9.176;2024-02-28T09:59:34;98608.25;;;10.41;58.92
550;BME280;20066;48.764;9.176;2024-02-28T10:02:21;98601.78;;;11.04;57.13
550;BME280;20066;48.764;9.176;2024-02-28T10:04:52;98590.75;;;10.62;58.09
550;BME280;20066;48.764;9.176;2024-02-28T10:07:20;98608.03;;;11.19;56.24
550;BME280;20066;48.764;9.176;2024-02-28T10:09:48;98607.81;;;10.36;58.14
550;BME280;20066;48.764;9.176;2024-02-28T10:12:16;98597.56;;;10.49;58.04
550;BME280;20066;48.764;9.176;2024-02-28T10:14:49;98605.38;;;10.68;57.54
550;BME280;20066;48.764;9.176;2024-02-28T10:17:17;98610.84;;;10.31;57.98
550;BME280;20066;48.764;9.176;2024-02-28T10:19:46;98612.97;;;10.55;57.11
550;BME280;20066;48.764;9.176;2024-02-28T10:22:15;98615.22;;;11.04;56.06
550;BME280;20066;48.764;9.176;2024-02-28T10:24:43;98609.88;;;10.53;57.27
550;BME280;20066;48.764;9.176;2024-02-28T10:27:15;98622.38;;;10.35;57.58
550;BME280;20066;48.764;9.176;2024-02-28T10:29:44;98626.19;;;10.74;56.28
550;BME280;20066;48.764;9.176;2024-02-28T10:32:13;98623.56;;;10.85;55.86
550;BME280;20066;48.764;9.176;2024-02-28T10:34:41;98626.13;;;10.67;55.94
550;BME280;20066;48.764;9.176;2024-02-28T10:37:12;98636.88;;;10.23;56.98
550;BME280;20066;48.764;9.176;2024-02-28T10:39:41;98635.16;;;10.41;56.53
550;BME280;20066;48.764;9.176;2024-02-28T10:42:11;98642.72;;;10.76;55.45
550;BME280;20066;48.764;9.176;2024-02-28T10:44:41;98639.56;;;10.64;56.07
550;BME280;20066;48.764;9.176;2024-02-28T10:47:10;98642.69;;;10.25;56.95
550;BME280;20066;48.764;9.176;2024-02-28T10:49:39;98645.44;;;9.65;58.58
550;BME280;20066;48.764;9.176;2024-02-28T10:52:08;98653.31;;;9.51;58.46
550;BME280;20066;48.764;9.176;2024-02-28T10:54:41;98654.63;;;9.98;58.23
550;BME280;20066;48.764;9.176;2024-02-28T10:57:12;98658.50;;;9.37;60.54
550;BME280;20066;48.764;9.176;2024-02-28T10:59:42;98659.28;;;9.67;59.17
550;BME280;20066;48.764;9.176;2024-02-28T11:02:12;98655.00;;;9.96;59.02
550;BME280;20066;48.764;9.176;2024-02-28T11:04:41;98652.56;;;10.58;56.13
550;BME280;20066;48.764;9.176;2024-02-28T11:07:10;98647.06;;;10.88;55.22
550;BME280;20066;48.764;9.176;2024-02-28T11:09:42;98646.22;;;10.33;56.88
550;BME280;20066;48.764;9.176;2024-02-28T11:12:25;98651.31;;;10.12;57.15
550;BME280;20066;48.764;9.176;2024-02-28T11:14:58;98650.44;;;10.00;58.13
550;BME280;20066;48.764;9.176;2024-02-28T11:17:27;98658.44;;;10.27;56.80
550;BME280;20066;48.764;9.176;2024-02-28T11:19:55;98660.22;;;10.53;56.34
550;BME280;20066;48.764;9.176;2024-02-28T11:22:23;98666.09;;;10.65;56.02
550;BME280;20066;48.764;9.176;2024-02-28T11:24:55;98668.19;;;10.42;56.52
550;BME280;20066;48.764;9.176;2024-02-28T11:27:24;98666.78;;;10.22;57.07
550;BME280;20066;48.764;9.176;2024-02-28T11:29:52;98667.53;;;10.56;56.12
550;BME280;20066;48.764;9.176;2024-02-28T11:32:20;98673.72;;;9.56;58.93
550;BME280;20066;48.764;9.176;2024-02-28T11:34:48;98664.59;;;9.97;58.45
550;BME280;20066;48.764;9.176;2024-02-28T11:37:18;98676.22;;;10.05;58.24
550;BME280;20066;48.764;9.176;2024-02-28T11:39:46;98670.25;;;10.19;57.51
550;BME280;20066;48.764;9.176;2024-02-28T11:42:16;98669.03;;;9.79;59.05
550;BME280;20066;48.764;9.176;2024-02-28T11:44:52;98661.69;;;10.10;58.41
550;BME280;20066;48.764;9.176;2024-02-28T11:47:25;98665.66;;;9.89;58.63
550;BME280;20066;48.764;9.176;2024-02-28T11:49:58;98675.81;;;9.69;59.55
550;BME280;20066;48.764;9.176;2024-02-28T11:52:26;98674.16;;;9.91;59.31
550;BME280;20066;48.764;9.176;2024-02-28T11:54:54;98668.13;;;10.79;56.24
550;BME280;20066;48.764;9.176;2024-02-28T11:57:24;98663.88;;;10.34;56.95
550;BME280;20066;48.764;9.176;2024-02-28T11:59:52;98668.03;;;10.68;56.04
550;BME280;20066;48.764;9.176;2024-02-28T12:02:23;98678.47;;;10.77;55.98
550;BME280;20066;48.764;9.176;2024-02-28T12:04:52;98670.28;;;11.10;54.90
550;BME280;20066;48.764;9.176;2024-02-28T12:07:22;98662.16;;;10.56;56.19
550;BME280;20066;48.764;9.176;2024-02-28T12:09:50;98668.31;;;10.56;56.41
550;BME280;20066;48.764;9.176;2024-02-28T12:12:18;98664.38;;;10.47;56.70
550;BME280;20066;48.764;9.176;2024-02-28T12:14:47;98655.38;;;10.28;57.14
550;BME280;20066;48.764;9.176;2024-02-28T12:17:15;98656.91;;;10.26;57.76
550;BME280;20066;48.764;9.176;2024-02-28T12:19:43;98649.09;;;9.80;58.53
550;BME280;20066;48.764;9.176;2024-02-28T12:22:11;98653.97;;;9.75;58.87
550;BME280;20066;48.764;9.176;2024-02-28T12:24:39;98652.31;;;10.74;56.48
550;BME280;20066;48.764;9.176;2024-02-28T12:27:10;98647.81;;;10.41;56.42
550;BME280;20066;48.764;9.176;2024-02-28T12:29:47;98651.16;;;9.94;58.21
550;BME280;20066;48.764;9.176;2024-02-28T12:32:21;98648.78;;;10.66;55.93
550;BME280;20066;48.764;9.176;2024-02-28T12:34:51;98652.53;;;10.55;55.86
550;BME280;20066;48.764;9.176;2024-02-28T12:37:20;98646.88;;;11.21;54.75
550;BME280;20066;48.764;9.176;2024-02-28T12:39:48;98655.09;;;11.43;53.62
550;BME280;20066;48.764;9.176;2024-02-28T12:42:18;98649.84;;;11.02;54.93
550;BME280;20066;48.764;9.176;2024-02-28T12:44:47;98639.41;;;10.46;55.79
550;BME280;20066;48.764;9.176;2024-02-28T12:47:15;98636.16;;;10.26;56.53
550;BME280;20066;48.764;9.176;2024-02-28T12:49:43;98643.94;;;9.68;58.50
550;BME280;20066;48.764;9.176;2024-02-28T12:52:11;98633.03;;;10.65;56.19
550;BME280;20066;48.764;9.176;2024-02-28T12:54:39;98635.81;;;10.75;56.01
550;BME280;20066;48.764;9.176;2024-02-28T12:57:07;98637.38;;;10.36;56.86
550;BME280;20066;48.764;9.176;2024-02-28T12:59:35;98632.69;;;10.70;56.66
550;BME280;20066;48.764;9.176;2024-02-28T13:02:07;98634.47;;;11.03;55.63
550;BME280;20066;48.764;9.176;2024-02-28T13:04:35;98639.28;;;9.65;58.68
550;BME280;20066;48.764;9.176;2024-02-28T13:07:03;98639.22;;;10.25;57.79
550;BME280;20066;48.764;9.176;2024-02-28T13:09:31;98628.06;;;9.56;59.07
550;BME280;20066;48.764;9.176;2024-02-28T13:12:00;98630.09;;;9.66;58.59
550;BME280;20066;48.764;9.176;2024-02-28T13:14:28;98635.97;;;9.75;59.13
550;BME280;20066;48.764;9.176;2024-02-28T13:16:56;98631.66;;;10.00;57.99
550;BME280;20066;48.764;9.176;2024-02-28T13:19:30;98632.56;;;9.82;58.18
550;BME280;20066;48.764;9.176;2024-02-28T13:21:58;98636.16;;;10.26;56.95
550;BME280;20066;48.764;9.176;2024-02-28T13:24:26;98638.50;;;10.75;55.51
550;BME280;20066;48.764;9.176;2024-02-28T13:26:54;98641.13;;;10.65;55.77
550;BME280;20066;48.764;9.176;2024-02-28T13:29:22;98640.91;;;10.88;54.41
550;BME280;20066;48.764;9.176;2024-02-28T13:31:50;98641.91;;;10.25;56.37
550;BME280;20066;48.764;9.176;2024-02-28T13:34:18;98630.66;;;10.16;57.51
550;BME280;20066;48.764;9.176;2024-02-28T13:36:48;98632.88;;;10.47;56.89
550;BME280;20066;48.764;9.176;2024-02-28T13:39:17;98636.34;;;10.48;56.99
550;BME280;20066;48.764;9.176;2024-02-28T13:41:45;98641.56;;;9.96;57.56
550;BME280;20066;48.764;9.176;2024-02-28T13:44:17;98643.81;;;10.24;57.45
550;BME280;20066;48.764;9.176;2024-02-28T13:46:46;98635.50;;;10.03;57.27
550;BME280;20066;48.764;9.176;2024-02-28T13:49:13;98634.63;;;10.29;57.67
550;BME280;20066;48.764;9.176;2024-02-28T13:51:42;98625.34;;;10.63;56.14
550;BME280;20066;48.764;9.176;2024-02-28T13:54:12;98623.78;;;11.20;54.58